Hlavní strana
METAR-TAF:

METAR-TAF

Letiště :

Split, Chorvatsko

Letiště Split

zeměpisná šířka: 43-32N, zeměpisná délka: 016-18E, výška: 19 m

Aktuální stav počasí

Zpráva byla vytvořena před 35 minutami, v 04:30 UTC
Severoseverovýchodní vítr 3 kt
Teplota 8°C
Vlhkost vzduchu 87%
Tlak 1018 hPa
Viditelnost: 7000 m
déšť

METAR: LDSP 180430Z AUTO 02003KT 7000 RA SCT014/// BKN017/// BKN025/// 08/06 Q1018 NOSIG

Čas: 06:05 (05:05 UTC)

Předpověď počasí

Zpráva byla vytvořena před 5 hodinami a 40 minutami, v 23:25 UTC
Předpověď platná od 18 v 00 UTC do 19 v 00 UTC
Východní vítr 6 kt
Viditelnost 10 km a více
Oblačno až skoro zataženo ve výšce 4000 ft
Dočasný
od 18 v 04 UTC do 18 v 18 UTC
déšť
Změna
od 18 v 07 UTC do 18 v 09 UTC
Severovýchodní vítr 10 kt
Pravděpodobnost 40% :
Dočasný
od 18 v 13 UTC do 19 v 00 UTC
Severovýchodní vítr 15 kt s nárazy do 25 kt

TAF: LDSP 172325Z 1800/1900 08006KT 9999 BKN040 TX10/1812Z TN05/1823Z TEMPO 1804/1818 RA BECMG 1807/1809 05010KT PROB40 TEMPO 1813/1900 05015G25KT

Stav a předpovědi počasí z více než 4 000 letišť (zprávy METAR a TAF).

Červené a žluté tečky na mapě představují dostupné meteorologické stanice.

Když kurzor umístíte na tečku, zobrazí se název stanice.

Pak kliknutím zobrazíte stav a předpověď počasí.

Chcete-li změnit mapu, kliknutím na zelené tlačítko se znaménkem +mapu přiblížíte, kliknutím na zelené tlačítko se znaménkem – mapu oddálíte a kliknutím na zelené šipky přejdete na sousední mapy.


METAR-TAF: